Ashfield, Massachusetts
Current Conditions -  °F | °C
As of 1:52 AM on Thursday 23 Oct 2014 (Local Time) from KAQW Reporting Station
Moderate Rain Moderate Rain  
Wind Chill: 48°   Ceiling: 2500
Heat Index: 48°   Visibility: 3mi
Dew Point: 46°   Wind: 3mph
Humidity: 93%   Direction: NA
Pressure: 29.87"   Gusts: NA
Location:  42.53°N, 72.79°W
Report Text: KAQW 230552Z AUTO VRB03KT 3SM RA BR BKN025 OVC033 09/08 A2987 RMK AO2 SLP118 P0021 60040 T00890078 10100 20089 58007
Loading
Personal Weather Stations






























Interactive Weather Map New forecast layout! Learn more

10-Day Weather Forecast

Advertisements
Track Severe Weather on mobile